ESOK 220820Z 24003KT 9999 OVC008 M04/M05 Q1029